sensor_id;sensor_type;location;lat;lon;timestamp;P1;durP1;ratioP1;P2;durP2;ratioP2
19329;SDS011;9799;48.214;16.388;2022-10-04T00:02:44;2.47;;;1.73;;
19329;SDS011;9799;48.214;16.388;2022-10-04T00:06:12;5.37;;;1.60;;
19329;SDS011;9799;48.214;16.388;2022-10-04T00:09:40;2.43;;;1.57;;
19329;SDS011;9799;48.214;16.388;2022-10-04T00:13:05;3.00;;;1.80;;
19329;SDS011;9799;48.214;16.388;2022-10-04T00:16:34;1.83;;;1.33;;
19329;SDS011;9799;48.214;16.388;2022-10-04T00:19:58;3.90;;;1.43;;
19329;SDS011;9799;48.214;16.388;2022-10-04T00:23:25;6.90;;;1.50;;
19329;SDS011;9799;48.214;16.388;2022-10-04T00:30:38;3.30;;;2.03;;
19329;SDS011;9799;48.214;16.388;2022-10-04T00:37:57;3.47;;;2.00;;
19329;SDS011;9799;48.214;16.388;2022-10-04T00:41:21;2.97;;;1.67;;
19329;SDS011;9799;48.214;16.388;2022-10-04T00:44:44;3.60;;;1.60;;
19329;SDS011;9799;48.214;16.388;2022-10-04T00:51:56;1.77;;;1.43;;
19329;SDS011;9799;48.214;16.388;2022-10-04T00:55:22;1.70;;;1.60;;
19329;SDS011;9799;48.214;16.388;2022-10-04T00:59:04;4.27;;;1.70;;
19329;SDS011;9799;48.214;16.388;2022-10-04T01:02:45;1.80;;;1.50;;
19329;SDS011;9799;48.214;16.388;2022-10-04T01:06:12;2.43;;;1.70;;
19329;SDS011;9799;48.214;16.388;2022-10-04T01:09:35;5.10;;;2.37;;
19329;SDS011;9799;48.214;16.388;2022-10-04T01:13:03;5.03;;;1.50;;
19329;SDS011;9799;48.214;16.388;2022-10-04T01:16:30;3.10;;;1.90;;
19329;SDS011;9799;48.214;16.388;2022-10-04T01:19:53;2.10;;;1.90;;
19329;SDS011;9799;48.214;16.388;2022-10-04T01:26:54;2.60;;;1.77;;
19329;SDS011;9799;48.214;16.388;2022-10-04T01:30:16;2.40;;;1.70;;
19329;SDS011;9799;48.214;16.388;2022-10-04T01:33:38;4.00;;;2.17;;
19329;SDS011;9799;48.214;16.388;2022-10-04T01:36:59;5.03;;;2.30;;
19329;SDS011;9799;48.214;16.388;2022-10-04T01:40:22;2.33;;;1.97;;
19329;SDS011;9799;48.214;16.388;2022-10-04T01:43:44;2.30;;;1.70;;
19329;SDS011;9799;48.214;16.388;2022-10-04T01:47:08;2.67;;;2.03;;
19329;SDS011;9799;48.214;16.388;2022-10-04T01:50:33;3.83;;;1.90;;
19329;SDS011;9799;48.214;16.388;2022-10-04T01:53:58;2.53;;;1.73;;
19329;SDS011;9799;48.214;16.388;2022-10-04T01:57:25;2.70;;;1.80;;
19329;SDS011;9799;48.214;16.388;2022-10-04T02:00:53;2.40;;;1.77;;
19329;SDS011;9799;48.214;16.388;2022-10-04T02:04:17;6.03;;;2.47;;
19329;SDS011;9799;48.214;16.388;2022-10-04T02:07:43;2.80;;;2.20;;
19329;SDS011;9799;48.214;16.388;2022-10-04T02:11:05;3.37;;;2.37;;
19329;SDS011;9799;48.214;16.388;2022-10-04T02:14:28;3.43;;;2.20;;
19329;SDS011;9799;48.214;16.388;2022-10-04T02:17:52;4.30;;;2.27;;
19329;SDS011;9799;48.214;16.388;2022-10-04T02:21:15;4.87;;;2.23;;
19329;SDS011;9799;48.214;16.388;2022-10-04T02:24:39;3.30;;;2.20;;
19329;SDS011;9799;48.214;16.388;2022-10-04T02:28:03;3.50;;;2.03;;
19329;SDS011;9799;48.214;16.388;2022-10-04T02:31:33;3.40;;;2.57;;
19329;SDS011;9799;48.214;16.388;2022-10-04T02:35:14;3.90;;;2.30;;
19329;SDS011;9799;48.214;16.388;2022-10-04T02:38:37;2.70;;;2.23;;
19329;SDS011;9799;48.214;16.388;2022-10-04T02:42:08;4.30;;;1.77;;
19329;SDS011;9799;48.214;16.388;2022-10-04T02:45:36;4.07;;;2.20;;
19329;SDS011;9799;48.214;16.388;2022-10-04T02:49:09;4.67;;;1.83;;
19329;SDS011;9799;48.214;16.388;2022-10-04T02:52:41;3.00;;;1.50;;
19329;SDS011;9799;48.214;16.388;2022-10-04T02:56:06;4.73;;;2.30;;
19329;SDS011;9799;48.214;16.388;2022-10-04T02:59:30;2.73;;;2.20;;
19329;SDS011;9799;48.214;16.388;2022-10-04T03:03:12;5.70;;;2.10;;
19329;SDS011;9799;48.214;16.388;2022-10-04T03:06:38;2.07;;;1.80;;
19329;SDS011;9799;48.214;16.388;2022-10-04T03:10:00;6.33;;;2.17;;
19329;SDS011;9799;48.214;16.388;2022-10-04T03:13:25;2.43;;;2.23;;
19329;SDS011;9799;48.214;16.388;2022-10-04T03:16:47;5.20;;;2.57;;
19329;SDS011;9799;48.214;16.388;2022-10-04T03:20:12;2.57;;;2.20;;
19329;SDS011;9799;48.214;16.388;2022-10-04T03:23:35;4.73;;;2.10;;
19329;SDS011;9799;48.214;16.388;2022-10-04T03:26:58;4.90;;;2.60;;
19329;SDS011;9799;48.214;16.388;2022-10-04T03:30:22;4.03;;;2.23;;
19329;SDS011;9799;48.214;16.388;2022-10-04T03:33:43;7.00;;;2.73;;
19329;SDS011;9799;48.214;16.388;2022-10-04T03:37:05;5.47;;;2.53;;
19329;SDS011;9799;48.214;16.388;2022-10-04T03:40:29;4.80;;;3.17;;
19329;SDS011;9799;48.214;16.388;2022-10-04T03:43:52;5.53;;;2.30;;
19329;SDS011;9799;48.214;16.388;2022-10-04T03:47:16;3.43;;;2.53;;
19329;SDS011;9799;48.214;16.388;2022-10-04T03:50:42;4.40;;;2.50;;
19329;SDS011;9799;48.214;16.388;2022-10-04T03:54:07;5.37;;;2.40;;
19329;SDS011;9799;48.214;16.388;2022-10-04T03:57:36;3.30;;;2.30;;
19329;SDS011;9799;48.214;16.388;2022-10-04T04:01:02;3.20;;;2.53;;
19329;SDS011;9799;48.214;16.388;2022-10-04T04:04:35;4.63;;;2.17;;
19329;SDS011;9799;48.214;16.388;2022-10-04T04:08:05;3.83;;;2.57;;
19329;SDS011;9799;48.214;16.388;2022-10-04T04:11:31;2.53;;;2.30;;
19329;SDS011;9799;48.214;16.388;2022-10-04T04:14:54;4.97;;;2.80;;
19329;SDS011;9799;48.214;16.388;2022-10-04T04:18:15;5.53;;;2.50;;
19329;SDS011;9799;48.214;16.388;2022-10-04T04:21:39;4.43;;;2.73;;
19329;SDS011;9799;48.214;16.388;2022-10-04T04:25:01;7.43;;;2.87;;
19329;SDS011;9799;48.214;16.388;2022-10-04T04:28:30;6.73;;;3.50;;
19329;SDS011;9799;48.214;16.388;2022-10-04T04:31:55;6.23;;;2.80;;
19329;SDS011;9799;48.214;16.388;2022-10-04T04:35:21;6.60;;;2.53;;
19329;SDS011;9799;48.214;16.388;2022-10-04T04:38:43;3.73;;;2.57;;
19329;SDS011;9799;48.214;16.388;2022-10-04T04:42:19;4.10;;;2.60;;
19329;SDS011;9799;48.214;16.388;2022-10-04T04:45:47;4.33;;;2.70;;
19329;SDS011;9799;48.214;16.388;2022-10-04T04:49:11;3.63;;;2.30;;
19329;SDS011;9799;48.214;16.388;2022-10-04T04:52:33;4.30;;;2.80;;
19329;SDS011;9799;48.214;16.388;2022-10-04T04:55:57;5.20;;;2.57;;
19329;SDS011;9799;48.214;16.388;2022-10-04T04:59:20;3.80;;;2.50;;
19329;SDS011;9799;48.214;16.388;2022-10-04T05:02:49;4.63;;;2.70;;
19329;SDS011;9799;48.214;16.388;2022-10-04T05:06:23;7.90;;;3.27;;
19329;SDS011;9799;48.214;16.388;2022-10-04T05:09:46;5.50;;;2.80;;
19329;SDS011;9799;48.214;16.388;2022-10-04T05:13:07;5.70;;;2.60;;
19329;SDS011;9799;48.214;16.388;2022-10-04T05:16:31;4.77;;;2.40;;
19329;SDS011;9799;48.214;16.388;2022-10-04T05:19:58;7.27;;;2.87;;
19329;SDS011;9799;48.214;16.388;2022-10-04T05:23:24;4.87;;;3.00;;
19329;SDS011;9799;48.214;16.388;2022-10-04T05:26:47;8.87;;;2.60;;
19329;SDS011;9799;48.214;16.388;2022-10-04T05:30:13;3.67;;;2.77;;
19329;SDS011;9799;48.214;16.388;2022-10-04T05:33:46;3.73;;;2.67;;
19329;SDS011;9799;48.214;16.388;2022-10-04T05:37:28;5.20;;;2.73;;
19329;SDS011;9799;48.214;16.388;2022-10-04T05:41:04;4.10;;;2.87;;
19329;SDS011;9799;48.214;16.388;2022-10-04T05:44:28;5.10;;;3.17;;
19329;SDS011;9799;48.214;16.388;2022-10-04T05:47:55;12.23;;;4.13;;
19329;SDS011;9799;48.214;16.388;2022-10-04T05:51:18;5.90;;;3.07;;
19329;SDS011;9799;48.214;16.388;2022-10-04T05:54:41;33.10;;;6.27;;
19329;SDS011;9799;48.214;16.388;2022-10-04T06:02:10;2.83;;;2.53;;
19329;SDS011;9799;48.214;16.388;2022-10-04T06:05:47;5.63;;;3.27;;
19329;SDS011;9799;48.214;16.388;2022-10-04T06:09:12;5.53;;;3.20;;
19329;SDS011;9799;48.214;16.388;2022-10-04T06:12:43;9.27;;;5.13;;
19329;SDS011;9799;48.214;16.388;2022-10-04T06:16:14;10.07;;;3.33;;
19329;SDS011;9799;48.214;16.388;2022-10-04T06:19:52;3.07;;;2.77;;
19329;SDS011;9799;48.214;16.388;2022-10-04T06:23:29;3.63;;;3.00;;
19329;SDS011;9799;48.214;16.388;2022-10-04T06:26:54;15.00;;;2.53;;
19329;SDS011;9799;48.214;16.388;2022-10-04T06:30:21;6.27;;;2.43;;
19329;SDS011;9799;48.214;16.388;2022-10-04T06:33:48;7.60;;;2.77;;
19329;SDS011;9799;48.214;16.388;2022-10-04T06:37:33;7.47;;;2.57;;
19329;SDS011;9799;48.214;16.388;2022-10-04T06:44:59;5.90;;;3.17;;
19329;SDS011;9799;48.214;16.388;2022-10-04T06:48:42;5.37;;;2.90;;
19329;SDS011;9799;48.214;16.388;2022-10-04T06:52:32;9.43;;;3.17;;
19329;SDS011;9799;48.214;16.388;2022-10-04T07:00:02;4.30;;;2.60;;
19329;SDS011;9799;48.214;16.388;2022-10-04T07:03:30;4.63;;;2.70;;
19329;SDS011;9799;48.214;16.388;2022-10-04T07:07:05;4.23;;;3.03;;
19329;SDS011;9799;48.214;16.388;2022-10-04T07:10:47;5.70;;;2.63;;
19329;SDS011;9799;48.214;16.388;2022-10-04T07:14:14;6.13;;;3.17;;
19329;SDS011;9799;48.214;16.388;2022-10-04T07:17:38;3.60;;;3.30;;
19329;SDS011;9799;48.214;16.388;2022-10-04T07:21:04;5.17;;;3.10;;
19329;SDS011;9799;48.214;16.388;2022-10-04T07:24:32;5.43;;;2.83;;
19329;SDS011;9799;48.214;16.388;2022-10-04T07:28:03;8.40;;;2.73;;
19329;SDS011;9799;48.214;16.388;2022-10-04T07:31:52;5.40;;;3.10;;
19329;SDS011;9799;48.214;16.388;2022-10-04T07:35:28;4.40;;;2.73;;
19329;SDS011;9799;48.214;16.388;2022-10-04T07:38:55;6.30;;;3.00;;
19329;SDS011;9799;48.214;16.388;2022-10-04T07:42:22;3.00;;;2.70;;
19329;SDS011;9799;48.214;16.388;2022-10-04T07:45:48;7.77;;;3.50;;
19329;SDS011;9799;48.214;16.388;2022-10-04T07:49:12;3.77;;;3.20;;
19329;SDS011;9799;48.214;16.388;2022-10-04T07:52:42;4.40;;;2.40;;
19329;SDS011;9799;48.214;16.388;2022-10-04T07:56:11;4.83;;;3.00;;
19329;SDS011;9799;48.214;16.388;2022-10-04T07:59:38;3.97;;;2.80;;
19329;SDS011;9799;48.214;16.388;2022-10-04T08:03:16;7.23;;;3.10;;
19329;SDS011;9799;48.214;16.388;2022-10-04T08:06:53;3.23;;;2.50;;
19329;SDS011;9799;48.214;16.388;2022-10-04T08:10:19;3.23;;;2.60;;
19329;SDS011;9799;48.214;16.388;2022-10-04T08:13:50;5.03;;;2.43;;
19329;SDS011;9799;48.214;16.388;2022-10-04T08:17:20;3.90;;;2.77;;
19329;SDS011;9799;48.214;16.388;2022-10-04T08:20:55;4.30;;;2.43;;
19329;SDS011;9799;48.214;16.388;2022-10-04T08:24:19;5.77;;;3.00;;
19329;SDS011;9799;48.214;16.388;2022-10-04T08:27:54;5.90;;;2.87;;
19329;SDS011;9799;48.214;16.388;2022-10-04T08:31:43;2.50;;;2.30;;
19329;SDS011;9799;48.214;16.388;2022-10-04T08:35:18;3.13;;;2.70;;
19329;SDS011;9799;48.214;16.388;2022-10-04T08:38:53;3.63;;;2.80;;
19329;SDS011;9799;48.214;16.388;2022-10-04T08:42:30;3.60;;;2.80;;
19329;SDS011;9799;48.214;16.388;2022-10-04T08:50:12;5.27;;;2.60;;
19329;SDS011;9799;48.214;16.388;2022-10-04T08:54:13;4.63;;;2.40;;
19329;SDS011;9799;48.214;16.388;2022-10-04T08:58:13;6.70;;;2.67;;
19329;SDS011;9799;48.214;16.388;2022-10-04T09:01:44;8.53;;;3.27;;
19329;SDS011;9799;48.214;16.388;2022-10-04T09:05:31;3.40;;;2.30;;
19329;SDS011;9799;48.214;16.388;2022-10-04T09:13:21;4.50;;;3.10;;
19329;SDS011;9799;48.214;16.388;2022-10-04T09:16:51;7.47;;;2.53;;
19329;SDS011;9799;48.214;16.388;2022-10-04T09:20:30;3.47;;;2.60;;
19329;SDS011;9799;48.214;16.388;2022-10-04T09:24:11;3.10;;;2.33;;
19329;SDS011;9799;48.214;16.388;2022-10-04T09:27:57;3.07;;;2.57;;
19329;SDS011;9799;48.214;16.388;2022-10-04T09:35:28;12.90;;;2.90;;
19329;SDS011;9799;48.214;16.388;2022-10-04T09:39:19;2.83;;;2.43;;
19329;SDS011;9799;48.214;16.388;2022-10-04T09:43:09;29.87;;;3.33;;
19329;SDS011;9799;48.214;16.388;2022-10-04T09:47:05;5.63;;;2.50;;
19329;SDS011;9799;48.214;16.388;2022-10-04T09:50:52;6.07;;;2.70;;
19329;SDS011;9799;48.214;16.388;2022-10-04T09:54:40;4.67;;;2.73;;
19329;SDS011;9799;48.214;16.388;2022-10-04T09:58:21;4.93;;;2.53;;
19329;SDS011;9799;48.214;16.388;2022-10-04T10:02:08;7.73;;;3.00;;
19329;SDS011;9799;48.214;16.388;2022-10-04T10:05:48;4.40;;;2.53;;
19329;SDS011;9799;48.214;16.388;2022-10-04T10:09:29;5.73;;;2.47;;
19329;SDS011;9799;48.214;16.388;2022-10-04T10:13:25;5.17;;;2.73;;
19329;SDS011;9799;48.214;16.388;2022-10-04T10:17:05;3.50;;;2.73;;
19329;SDS011;9799;48.214;16.388;2022-10-04T10:24:52;4.03;;;2.93;;
19329;SDS011;9799;48.214;16.388;2022-10-04T10:28:26;4.13;;;2.60;;
19329;SDS011;9799;48.214;16.388;2022-10-04T10:32:22;4.23;;;2.53;;
19329;SDS011;9799;48.214;16.388;2022-10-04T10:40:31;5.10;;;2.90;;
19329;SDS011;9799;48.214;16.388;2022-10-04T10:44:16;7.87;;;3.00;;
19329;SDS011;9799;48.214;16.388;2022-10-04T10:47:57;4.93;;;2.90;;
19329;SDS011;9799;48.214;16.388;2022-10-04T10:51:27;3.60;;;2.47;;
19329;SDS011;9799;48.214;16.388;2022-10-04T10:59:30;5.13;;;2.50;;
19329;SDS011;9799;48.214;16.388;2022-10-04T11:03:20;7.93;;;3.40;;
19329;SDS011;9799;48.214;16.388;2022-10-04T11:07:19;3.63;;;2.73;;
19329;SDS011;9799;48.214;16.388;2022-10-04T11:10:59;5.13;;;3.03;;
19329;SDS011;9799;48.214;16.388;2022-10-04T11:14:42;3.80;;;2.70;;
19329;SDS011;9799;48.214;16.388;2022-10-04T11:18:24;4.03;;;2.33;;
19329;SDS011;9799;48.214;16.388;2022-10-04T11:22:39;2.27;;;1.70;;
19329;SDS011;9799;48.214;16.388;2022-10-04T11:26:31;2.63;;;1.83;;
19329;SDS011;9799;48.214;16.388;2022-10-04T11:30:20;3.97;;;1.90;;
19329;SDS011;9799;48.214;16.388;2022-10-04T11:33:49;2.70;;;1.70;;
19329;SDS011;9799;48.214;16.388;2022-10-04T11:37:31;4.47;;;2.70;;
19329;SDS011;9799;48.214;16.388;2022-10-04T11:41:12;3.83;;;2.00;;
19329;SDS011;9799;48.214;16.388;2022-10-04T11:48:39;2.63;;;1.93;;
19329;SDS011;9799;48.214;16.388;2022-10-04T11:56:27;3.43;;;2.33;;
19329;SDS011;9799;48.214;16.388;2022-10-04T11:59:58;3.33;;;2.23;;
19329;SDS011;9799;48.214;16.388;2022-10-04T12:03:29;3.47;;;2.27;;
19329;SDS011;9799;48.214;16.388;2022-10-04T12:07:28;5.57;;;2.70;;
19329;SDS011;9799;48.214;16.388;2022-10-04T12:15:17;2.70;;;2.20;;
19329;SDS011;9799;48.214;16.388;2022-10-04T12:19:07;2.07;;;1.90;;
19329;SDS011;9799;48.214;16.388;2022-10-04T12:22:54;2.90;;;2.30;;
19329;SDS011;9799;48.214;16.388;2022-10-04T12:30:24;3.53;;;2.10;;
19329;SDS011;9799;48.214;16.388;2022-10-04T12:33:57;5.00;;;2.40;;
19329;SDS011;9799;48.214;16.388;2022-10-04T12:37:26;3.20;;;2.20;;
19329;SDS011;9799;48.214;16.388;2022-10-04T12:41:00;2.23;;;2.03;;
19329;SDS011;9799;48.214;16.388;2022-10-04T12:44:33;3.07;;;1.97;;
19329;SDS011;9799;48.214;16.388;2022-10-04T12:48:14;5.80;;;2.07;;
19329;SDS011;9799;48.214;16.388;2022-10-04T12:51:48;2.60;;;2.00;;
19329;SDS011;9799;48.214;16.388;2022-10-04T12:55:18;2.90;;;1.93;;
19329;SDS011;9799;48.214;16.388;2022-10-04T12:58:50;2.40;;;2.20;;
19329;SDS011;9799;48.214;16.388;2022-10-04T13:02:40;2.30;;;2.00;;
19329;SDS011;9799;48.214;16.388;2022-10-04T13:06:26;2.77;;;1.70;;
19329;SDS011;9799;48.214;16.388;2022-10-04T13:09:57;4.83;;;2.00;;
19329;SDS011;9799;48.214;16.388;2022-10-04T13:13:32;2.60;;;1.80;;
19329;SDS011;9799;48.214;16.388;2022-10-04T13:17:15;2.70;;;2.43;;
19329;SDS011;9799;48.214;16.388;2022-10-04T13:20:44;3.23;;;2.37;;
19329;SDS011;9799;48.214;16.388;2022-10-04T13:24:13;3.37;;;2.70;;
19329;SDS011;9799;48.214;16.388;2022-10-04T13:27:45;2.47;;;1.70;;
19329;SDS011;9799;48.214;16.388;2022-10-04T13:31:12;3.73;;;2.10;;
19329;SDS011;9799;48.214;16.388;2022-10-04T13:34:44;4.93;;;2.20;;
19329;SDS011;9799;48.214;16.388;2022-10-04T13:38:23;3.30;;;2.10;;
19329;SDS011;9799;48.214;16.388;2022-10-04T13:42:01;3.10;;;2.03;;
19329;SDS011;9799;48.214;16.388;2022-10-04T13:45:40;3.87;;;2.30;;
19329;SDS011;9799;48.214;16.388;2022-10-04T13:49:20;3.67;;;2.23;;
19329;SDS011;9799;48.214;16.388;2022-10-04T13:52:52;2.63;;;2.20;;
19329;SDS011;9799;48.214;16.388;2022-10-04T13:56:42;4.10;;;2.30;;
19329;SDS011;9799;48.214;16.388;2022-10-04T14:00:18;2.97;;;2.13;;
19329;SDS011;9799;48.214;16.388;2022-10-04T14:03:53;3.30;;;2.13;;
19329;SDS011;9799;48.214;16.388;2022-10-04T14:07:43;3.03;;;2.27;;
19329;SDS011;9799;48.214;16.388;2022-10-04T14:11:26;2.37;;;2.00;;
19329;SDS011;9799;48.214;16.388;2022-10-04T14:22:46;4.03;;;2.20;;
19329;SDS011;9799;48.214;16.388;2022-10-04T14:26:42;2.57;;;2.00;;
19329;SDS011;9799;48.214;16.388;2022-10-04T14:30:26;8.67;;;2.40;;
19329;SDS011;9799;48.214;16.388;2022-10-04T14:46:00;3.30;;;2.20;;
19329;SDS011;9799;48.214;16.388;2022-10-04T14:49:38;5.25;;;2.50;;
19329;SDS011;9799;48.214;16.388;2022-10-04T14:53:14;5.17;;;2.70;;
19329;SDS011;9799;48.214;16.388;2022-10-04T14:56:49;9.30;;;2.77;;
19329;SDS011;9799;48.214;16.388;2022-10-04T15:00:21;3.17;;;2.43;;
19329;SDS011;9799;48.214;16.388;2022-10-04T15:07:33;4.37;;;3.97;;
19329;SDS011;9799;48.214;16.388;2022-10-04T15:10:57;6.53;;;2.93;;
19329;SDS011;9799;48.214;16.388;2022-10-04T15:14:35;2.30;;;2.10;;
19329;SDS011;9799;48.214;16.388;2022-10-04T15:18:03;4.30;;;2.70;;
19329;SDS011;9799;48.214;16.388;2022-10-04T15:21:41;8.63;;;2.80;;
19329;SDS011;9799;48.214;16.388;2022-10-04T15:29:04;7.40;;;4.03;;
19329;SDS011;9799;48.214;16.388;2022-10-04T15:32:43;3.27;;;2.87;;
19329;SDS011;9799;48.214;16.388;2022-10-04T15:40:20;3.90;;;2.67;;
19329;SDS011;9799;48.214;16.388;2022-10-04T15:44:09;3.10;;;2.40;;
19329;SDS011;9799;48.214;16.388;2022-10-04T15:48:03;3.07;;;1.93;;
19329;SDS011;9799;48.214;16.388;2022-10-04T15:51:47;3.10;;;2.73;;
19329;SDS011;9799;48.214;16.388;2022-10-04T15:55:27;3.73;;;2.40;;
19329;SDS011;9799;48.214;16.388;2022-10-04T15:59:24;4.57;;;2.10;;
19329;SDS011;9799;48.214;16.388;2022-10-04T16:03:08;3.43;;;2.73;;
19329;SDS011;9799;48.214;16.388;2022-10-04T16:06:42;2.60;;;2.20;;
19329;SDS011;9799;48.214;16.388;2022-10-04T16:18:23;4.77;;;2.70;;
19329;SDS011;9799;48.214;16.388;2022-10-04T16:22:07;2.40;;;2.20;;
19329;SDS011;9799;48.214;16.388;2022-10-04T16:25:36;3.73;;;2.47;;
19329;SDS011;9799;48.214;16.388;2022-10-04T16:29:01;6.10;;;3.03;;
19329;SDS011;9799;48.214;16.388;2022-10-04T16:32:30;3.07;;;2.77;;
19329;SDS011;9799;48.214;16.388;2022-10-04T16:36:06;5.63;;;3.00;;
19329;SDS011;9799;48.214;16.388;2022-10-04T16:39:35;4.83;;;4.30;;
19329;SDS011;9799;48.214;16.388;2022-10-04T16:43:22;6.60;;;3.27;;
19329;SDS011;9799;48.214;16.388;2022-10-04T16:46:46;3.53;;;2.97;;
19329;SDS011;9799;48.214;16.388;2022-10-04T16:50:42;3.77;;;3.03;;
19329;SDS011;9799;48.214;16.388;2022-10-04T16:54:36;9.50;;;3.50;;
19329;SDS011;9799;48.214;16.388;2022-10-04T17:02:20;7.70;;;6.10;;
19329;SDS011;9799;48.214;16.388;2022-10-04T17:06:11;8.47;;;6.43;;
19329;SDS011;9799;48.214;16.388;2022-10-04T17:09:35;5.23;;;4.67;;
19329;SDS011;9799;48.214;16.388;2022-10-04T17:13:12;5.30;;;4.70;;
19329;SDS011;9799;48.214;16.388;2022-10-04T17:16:45;7.67;;;5.70;;
19329;SDS011;9799;48.214;16.388;2022-10-04T17:20:19;5.23;;;4.70;;
19329;SDS011;9799;48.214;16.388;2022-10-04T17:23:51;6.47;;;4.53;;
19329;SDS011;9799;48.214;16.388;2022-10-04T17:27:41;6.17;;;5.03;;
19329;SDS011;9799;48.214;16.388;2022-10-04T17:31:07;11.30;;;5.47;;
19329;SDS011;9799;48.214;16.388;2022-10-04T17:34:35;7.90;;;4.77;;
19329;SDS011;9799;48.214;16.388;2022-10-04T17:38:08;11.07;;;6.80;;
19329;SDS011;9799;48.214;16.388;2022-10-04T17:41:48;11.97;;;8.33;;
19329;SDS011;9799;48.214;16.388;2022-10-04T17:49:08;7.40;;;5.40;;
19329;SDS011;9799;48.214;16.388;2022-10-04T17:52:57;13.07;;;6.20;;
19329;SDS011;9799;48.214;16.388;2022-10-04T17:56:42;8.83;;;6.13;;
19329;SDS011;9799;48.214;16.388;2022-10-04T18:00:09;10.00;;;7.47;;
19329;SDS011;9799;48.214;16.388;2022-10-04T18:03:36;9.97;;;6.33;;
19329;SDS011;9799;48.214;16.388;2022-10-04T18:07:00;12.50;;;8.87;;
19329;SDS011;9799;48.214;16.388;2022-10-04T18:10:31;12.23;;;7.97;;
19329;SDS011;9799;48.214;16.388;2022-10-04T18:13:58;12.50;;;8.37;;
19329;SDS011;9799;48.214;16.388;2022-10-04T18:17:31;13.67;;;10.43;;
19329;SDS011;9799;48.214;16.388;2022-10-04T18:21:00;10.80;;;7.93;;
19329;SDS011;9799;48.214;16.388;2022-10-04T18:24:26;12.03;;;7.73;;
19329;SDS011;9799;48.214;16.388;2022-10-04T18:27:50;10.93;;;8.73;;
19329;SDS011;9799;48.214;16.388;2022-10-04T18:31:27;10.77;;;8.67;;
19329;SDS011;9799;48.214;16.388;2022-10-04T18:34:52;15.23;;;8.93;;
19329;SDS011;9799;48.214;16.388;2022-10-04T18:38:19;17.90;;;10.70;;
19329;SDS011;9799;48.214;16.388;2022-10-04T18:41:52;23.40;;;16.10;;
19329;SDS011;9799;48.214;16.388;2022-10-04T18:45:20;14.20;;;10.53;;
19329;SDS011;9799;48.214;16.388;2022-10-04T18:48:54;12.80;;;9.77;;
19329;SDS011;9799;48.214;16.388;2022-10-04T18:52:23;16.43;;;11.00;;
19329;SDS011;9799;48.214;16.388;2022-10-04T18:55:58;13.53;;;10.53;;
19329;SDS011;9799;48.214;16.388;2022-10-04T18:59:24;16.03;;;11.30;;
19329;SDS011;9799;48.214;16.388;2022-10-04T19:03:14;15.20;;;11.03;;
19329;SDS011;9799;48.214;16.388;2022-10-04T19:06:44;16.43;;;11.20;;
19329;SDS011;9799;48.214;16.388;2022-10-04T19:10:12;17.83;;;9.53;;
19329;SDS011;9799;48.214;16.388;2022-10-04T19:13:45;16.60;;;8.47;;
19329;SDS011;9799;48.214;16.388;2022-10-04T19:17:20;12.17;;;9.10;;
19329;SDS011;9799;48.214;16.388;2022-10-04T19:20:50;14.03;;;10.03;;
19329;SDS011;9799;48.214;16.388;2022-10-04T19:24:24;16.93;;;10.83;;
19329;SDS011;9799;48.214;16.388;2022-10-04T19:27:56;14.67;;;11.23;;
19329;SDS011;9799;48.214;16.388;2022-10-04T19:31:22;15.67;;;10.77;;
19329;SDS011;9799;48.214;16.388;2022-10-04T19:34:53;10.57;;;8.80;;
19329;SDS011;9799;48.214;16.388;2022-10-04T19:38:29;19.93;;;11.07;;
19329;SDS011;9799;48.214;16.388;2022-10-04T19:42:07;12.10;;;8.60;;
19329;SDS011;9799;48.214;16.388;2022-10-04T19:45:34;12.10;;;9.27;;
19329;SDS011;9799;48.214;16.388;2022-10-04T19:49:03;16.57;;;9.27;;
19329;SDS011;9799;48.214;16.388;2022-10-04T19:52:38;19.50;;;10.23;;
19329;SDS011;9799;48.214;16.388;2022-10-04T19:56:08;22.37;;;9.53;;
19329;SDS011;9799;48.214;16.388;2022-10-04T19:59:39;13.93;;;8.63;;
19329;SDS011;9799;48.214;16.388;2022-10-04T20:03:08;11.60;;;8.70;;
19329;SDS011;9799;48.214;16.388;2022-10-04T20:06:31;11.33;;;8.30;;
19329;SDS011;9799;48.214;16.388;2022-10-04T20:09:55;9.90;;;7.30;;
19329;SDS011;9799;48.214;16.388;2022-10-04T20:13:26;9.30;;;7.10;;
19329;SDS011;9799;48.214;16.388;2022-10-04T20:21:02;8.23;;;6.40;;
19329;SDS011;9799;48.214;16.388;2022-10-04T20:28:10;15.47;;;7.20;;
19329;SDS011;9799;48.214;16.388;2022-10-04T20:32:02;7.90;;;6.43;;
19329;SDS011;9799;48.214;16.388;2022-10-04T20:43:24;6.53;;;5.23;;
19329;SDS011;9799;48.214;16.388;2022-10-04T20:46:50;6.60;;;5.67;;
19329;SDS011;9799;48.214;16.388;2022-10-04T20:50:22;9.23;;;5.90;;
19329;SDS011;9799;48.214;16.388;2022-10-04T20:53:49;9.10;;;5.30;;
19329;SDS011;9799;48.214;16.388;2022-10-04T20:57:10;6.77;;;5.17;;
19329;SDS011;9799;48.214;16.388;2022-10-04T21:00:36;10.00;;;6.80;;
19329;SDS011;9799;48.214;16.388;2022-10-04T21:04:11;7.57;;;5.30;;
19329;SDS011;9799;48.214;16.388;2022-10-04T21:07:33;8.10;;;5.63;;
19329;SDS011;9799;48.214;16.388;2022-10-04T21:11:08;6.33;;;5.17;;
19329;SDS011;9799;48.214;16.388;2022-10-04T21:14:32;8.43;;;5.27;;
19329;SDS011;9799;48.214;16.388;2022-10-04T21:18:00;11.23;;;5.67;;
19329;SDS011;9799;48.214;16.388;2022-10-04T21:25:27;7.67;;;5.53;;
19329;SDS011;9799;48.214;16.388;2022-10-04T21:28:52;7.30;;;5.27;;
19329;SDS011;9799;48.214;16.388;2022-10-04T21:32:15;9.90;;;5.70;;
19329;SDS011;9799;48.214;16.388;2022-10-04T21:35:37;11.10;;;6.20;;
19329;SDS011;9799;48.214;16.388;2022-10-04T21:38:58;9.87;;;5.27;;
19329;SDS011;9799;48.214;16.388;2022-10-04T21:42:20;7.23;;;6.00;;
19329;SDS011;9799;48.214;16.388;2022-10-04T21:45:44;7.33;;;6.57;;
19329;SDS011;9799;48.214;16.388;2022-10-04T21:49:05;9.27;;;7.17;;
19329;SDS011;9799;48.214;16.388;2022-10-04T21:52:28;11.07;;;7.13;;
19329;SDS011;9799;48.214;16.388;2022-10-04T21:55:49;6.20;;;5.57;;
19329;SDS011;9799;48.214;16.388;2022-10-04T21:59:10;9.00;;;5.53;;
19329;SDS011;9799;48.214;16.388;2022-10-04T22:02:31;7.77;;;5.97;;
19329;SDS011;9799;48.214;16.388;2022-10-04T22:05:53;11.03;;;6.03;;
19329;SDS011;9799;48.214;16.388;2022-10-04T22:09:15;12.07;;;6.27;;
19329;SDS011;9799;48.214;16.388;2022-10-04T22:12:36;10.63;;;6.40;;
19329;SDS011;9799;48.214;16.388;2022-10-04T22:15:57;12.57;;;5.80;;
19329;SDS011;9799;48.214;16.388;2022-10-04T22:19:20;6.50;;;5.67;;
19329;SDS011;9799;48.214;16.388;2022-10-04T22:22:41;9.20;;;5.57;;
19329;SDS011;9799;48.214;16.388;2022-10-04T22:26:07;7.93;;;6.10;;
19329;SDS011;9799;48.214;16.388;2022-10-04T22:29:30;6.93;;;5.53;;
19329;SDS011;9799;48.214;16.388;2022-10-04T22:32:53;7.27;;;5.53;;
19329;SDS011;9799;48.214;16.388;2022-10-04T22:36:17;11.07;;;6.30;;
19329;SDS011;9799;48.214;16.388;2022-10-04T22:39:39;8.33;;;5.93;;
19329;SDS011;9799;48.214;16.388;2022-10-04T22:43:02;9.27;;;6.13;;
19329;SDS011;9799;48.214;16.388;2022-10-04T22:46:24;10.97;;;6.50;;
19329;SDS011;9799;48.214;16.388;2022-10-04T22:49:51;8.00;;;6.10;;
19329;SDS011;9799;48.214;16.388;2022-10-04T22:53:16;8.50;;;6.13;;
19329;SDS011;9799;48.214;16.388;2022-10-04T22:56:40;16.97;;;6.67;;
19329;SDS011;9799;48.214;16.388;2022-10-04T23:00:03;9.10;;;6.47;;
19329;SDS011;9799;48.214;16.388;2022-10-04T23:03:26;6.63;;;5.77;;
19329;SDS011;9799;48.214;16.388;2022-10-04T23:06:50;7.97;;;6.23;;
19329;SDS011;9799;48.214;16.388;2022-10-04T23:10:13;8.00;;;5.93;;
19329;SDS011;9799;48.214;16.388;2022-10-04T23:13:36;12.27;;;6.13;;
19329;SDS011;9799;48.214;16.388;2022-10-04T23:16:59;6.30;;;5.33;;
19329;SDS011;9799;48.214;16.388;2022-10-04T23:20:22;7.43;;;6.00;;
19329;SDS011;9799;48.214;16.388;2022-10-04T23:23:43;7.03;;;5.33;;
19329;SDS011;9799;48.214;16.388;2022-10-04T23:27:05;7.20;;;5.37;;
19329;SDS011;9799;48.214;16.388;2022-10-04T23:30:34;10.93;;;4.90;;